createdAt,value
2018-04-26T00:00:12.483Z,1008.11
2018-04-26T00:01:12.459Z,1008.06
2018-04-26T00:02:12.427Z,1008.00
2018-04-26T00:03:12.405Z,1008.02
2018-04-26T00:04:12.441Z,1008.08
2018-04-26T00:05:12.337Z,1008.09
2018-04-26T00:06:12.307Z,1008.05
2018-04-26T00:07:12.275Z,1008.01
2018-04-26T00:08:12.259Z,1008.06
2018-04-26T00:09:12.217Z,1008.04
2018-04-26T00:10:12.197Z,1007.99
2018-04-26T00:11:12.193Z,1007.99
2018-04-26T00:12:12.134Z,1007.98
2018-04-26T00:13:12.113Z,1007.98
2018-04-26T00:14:12.112Z,1007.93
2018-04-26T00:15:12.110Z,1007.98
2018-04-26T00:16:12.071Z,1007.94
2018-04-26T00:17:12.060Z,1007.94
2018-04-26T00:18:11.985Z,1007.94
2018-04-26T00:19:11.985Z,1007.96
2018-04-26T00:20:11.936Z,1007.92
2018-04-26T00:21:11.871Z,1007.99
2018-04-26T00:22:11.850Z,1007.89
2018-04-26T00:23:11.817Z,1007.96
2018-04-26T00:24:11.781Z,1007.98
2018-04-26T00:25:11.762Z,1008.01
2018-04-26T00:26:11.726Z,1007.98
2018-04-26T00:27:11.695Z,1008.04
2018-04-26T00:28:11.669Z,1008.02
2018-04-26T00:29:11.640Z,1008.05
2018-04-26T00:30:11.618Z,1007.99
2018-04-26T00:31:11.581Z,1007.94
2018-04-26T00:32:11.560Z,1008.07
2018-04-26T00:33:11.539Z,1008.10
2018-04-26T00:34:11.745Z,1008.07
2018-04-26T00:35:11.556Z,1008.06
2018-04-26T00:36:11.488Z,1008.05
2018-04-26T00:37:11.492Z,1007.99
2018-04-26T00:38:11.464Z,1008.02
2018-04-26T00:39:11.411Z,1007.98
2018-04-26T00:40:11.413Z,1007.97
2018-04-26T00:41:11.470Z,1007.94
2018-04-26T00:42:11.342Z,1007.98
2018-04-26T00:43:11.304Z,1007.98
2018-04-26T00:44:11.476Z,1007.98
2018-04-26T00:45:11.427Z,1007.97
2018-04-26T00:46:11.223Z,1007.96
2018-04-26T00:47:11.233Z,1008.06
2018-04-26T00:48:11.225Z,1007.94
2018-04-26T00:49:11.220Z,1007.94
2018-04-26T00:50:11.152Z,1007.94
2018-04-26T00:51:11.135Z,1007.92
2018-04-26T00:52:11.040Z,1007.90
2018-04-26T00:53:10.994Z,1007.98
2018-04-26T00:54:11.053Z,1007.95
2018-04-26T00:55:10.931Z,1007.95
2018-04-26T00:56:10.946Z,1007.97
2018-04-26T00:57:10.855Z,1007.94
2018-04-26T00:58:10.810Z,1007.80
2018-04-26T00:59:10.774Z,1007.94
2018-04-26T01:00:10.744Z,1007.95
2018-04-26T01:01:10.705Z,1007.94
2018-04-26T01:02:10.679Z,1007.90
2018-04-26T01:03:10.651Z,1007.93
2018-04-26T01:04:10.622Z,1007.84
2018-04-26T01:05:10.593Z,1008.02
2018-04-26T01:06:10.566Z,1007.92
2018-04-26T01:07:10.553Z,1007.90
2018-04-26T01:08:10.520Z,1007.90
2018-04-26T01:09:10.478Z,1007.91
2018-04-26T01:10:10.454Z,1007.96
2018-04-26T01:11:10.452Z,1007.92
2018-04-26T01:12:10.493Z,1007.94
2018-04-26T01:13:10.507Z,1007.91
2018-04-26T01:14:10.463Z,1007.92
2018-04-26T01:15:10.481Z,1007.88
2018-04-26T01:16:10.312Z,1007.88
2018-04-26T01:17:10.360Z,1008.01
2018-04-26T01:18:10.425Z,1007.88
2018-04-26T01:19:10.295Z,1007.90
2018-04-26T01:20:10.417Z,1008.00
2018-04-26T01:21:10.154Z,1007.92
2018-04-26T01:22:10.195Z,1007.86
2018-04-26T01:23:10.222Z,1007.87
2018-04-26T01:24:10.228Z,1007.88
2018-04-26T01:25:10.166Z,1008.12
2018-04-26T01:26:10.044Z,1007.85
2018-04-26T01:27:10.054Z,1007.91
2018-04-26T01:28:10.052Z,1007.85
2018-04-26T01:29:09.977Z,1007.88
2018-04-26T01:30:10.063Z,1007.93
2018-04-26T01:31:09.911Z,1007.87
2018-04-26T01:32:10.022Z,1007.86
2018-04-26T01:33:10.007Z,1007.84
2018-04-26T01:34:09.868Z,1007.86
2018-04-26T01:35:09.805Z,1007.81
2018-04-26T01:36:09.778Z,1007.89
2018-04-26T01:37:09.730Z,1007.81
2018-04-26T01:38:10.519Z,1007.83
2018-04-26T01:39:09.879Z,1007.89
2018-04-26T01:40:09.700Z,1007.82
2018-04-26T01:41:09.552Z,1007.83
2018-04-26T01:42:09.510Z,1007.83
2018-04-26T01:43:09.486Z,1007.83
2018-04-26T01:44:09.455Z,1007.86
2018-04-26T01:45:09.433Z,1007.81
2018-04-26T01:46:09.396Z,1007.86
2018-04-26T01:47:09.368Z,1007.81
2018-04-26T01:48:09.636Z,1007.82
2018-04-26T01:49:09.511Z,1007.78
2018-04-26T01:50:10.106Z,1007.82
2018-04-26T01:51:09.399Z,1007.80
2018-04-26T01:52:09.364Z,1007.78
2018-04-26T01:53:09.191Z,1007.81
2018-04-26T01:54:09.166Z,1007.92
2018-04-26T01:55:09.137Z,1007.88
2018-04-26T01:56:09.106Z,1007.81
2018-04-26T01:57:09.078Z,1007.82
2018-04-26T01:58:09.059Z,1007.79
2018-04-26T01:59:30.712Z,1007.82
2018-04-26T02:01:25.084Z,1007.80
2018-04-26T02:02:24.979Z,1007.85
2018-04-26T02:04:42.359Z,1007.83
2018-04-26T02:05:42.284Z,1007.86
2018-04-26T02:07:55.191Z,1007.75
2018-04-26T02:08:55.028Z,1007.76
2018-04-26T02:10:58.494Z,1007.79
2018-04-26T02:11:58.432Z,1007.81
2018-04-26T02:14:06.456Z,1007.75
2018-04-26T02:15:06.163Z,1007.79
2018-04-26T02:17:12.111Z,1007.74
2018-04-26T02:18:11.950Z,1007.76
2018-04-26T02:20:24.884Z,1007.76
2018-04-26T02:21:24.919Z,1007.75
2018-04-26T02:23:35.675Z,1007.79
2018-04-26T02:24:35.250Z,1007.80
2018-04-26T02:26:41.099Z,1007.80
2018-04-26T02:27:41.025Z,1007.82
2018-04-26T02:29:45.378Z,1007.83
2018-04-26T02:30:45.405Z,1007.86
2018-04-26T02:32:53.218Z,1007.87
2018-04-26T02:33:53.172Z,1007.87
2018-04-26T02:35:53.450Z,1007.83
2018-04-26T02:36:53.503Z,1007.93
2018-04-26T02:38:56.866Z,1007.90
2018-04-26T02:39:56.872Z,1007.91
2018-04-26T02:42:07.270Z,1007.96
2018-04-26T02:43:07.284Z,1007.82
2018-04-26T02:45:13.049Z,1007.92
2018-04-26T02:46:12.997Z,1007.99
2018-04-26T02:48:17.269Z,1008.03
2018-04-26T02:49:17.310Z,1007.92
2018-04-26T02:51:21.615Z,1007.88
2018-04-26T02:52:21.646Z,1007.82
2018-04-26T02:54:29.735Z,1007.98
2018-04-26T02:55:29.426Z,1007.90
2018-04-26T02:56:29.312Z,1007.89
2018-04-26T02:57:29.334Z,1007.92
2018-04-26T02:58:29.234Z,1007.89
2018-04-26T02:59:29.197Z,1007.96
2018-04-26T03:00:29.162Z,1007.92
2018-04-26T03:01:29.139Z,1008.05
2018-04-26T03:02:29.107Z,1008.00
2018-04-26T03:03:29.070Z,1008.00
2018-04-26T03:04:29.048Z,1008.02
2018-04-26T03:05:29.016Z,1008.05
2018-04-26T03:06:28.988Z,1008.06
2018-04-26T03:07:28.960Z,1007.95
2018-04-26T03:08:28.930Z,1007.87
2018-04-26T03:09:28.916Z,1007.92
2018-04-26T03:10:28.877Z,1007.99
2018-04-26T03:11:28.843Z,1007.94
2018-04-26T03:12:28.815Z,1007.94
2018-04-26T03:13:28.798Z,1007.95
2018-04-26T03:14:28.756Z,1008.04
2018-04-26T03:15:28.721Z,1007.91
2018-04-26T03:16:28.697Z,1007.90
2018-04-26T03:17:28.657Z,1007.95
2018-04-26T03:18:28.640Z,1007.93
2018-04-26T03:19:28.613Z,1007.85
2018-04-26T03:20:28.575Z,1007.92
2018-04-26T03:21:28.553Z,1007.95
2018-04-26T03:22:28.517Z,1007.84
2018-04-26T03:23:28.491Z,1007.82
2018-04-26T03:24:28.457Z,1007.92
2018-04-26T03:25:28.429Z,1007.85
2018-04-26T03:26:28.402Z,1007.90
2018-04-26T03:27:28.397Z,1007.90
2018-04-26T03:28:28.331Z,1007.95
2018-04-26T03:29:28.302Z,1007.95
2018-04-26T03:30:28.281Z,1008.05
2018-04-26T03:31:28.243Z,1007.98
2018-04-26T03:32:28.208Z,1007.96
2018-04-26T03:33:28.190Z,1008.02
2018-04-26T03:34:28.153Z,1007.97
2018-04-26T03:35:28.123Z,1008.11
2018-04-26T03:36:28.103Z,1008.04
2018-04-26T03:37:28.072Z,1008.05
2018-04-26T03:38:28.036Z,1008.03
2018-04-26T03:39:28.007Z,1008.01
2018-04-26T03:40:27.979Z,1008.00
2018-04-26T03:41:27.946Z,1007.99
2018-04-26T03:42:27.922Z,1007.98
2018-04-26T03:43:27.882Z,1008.00
2018-04-26T03:44:27.857Z,1008.01
2018-04-26T03:45:27.828Z,1008.07
2018-04-26T03:46:27.792Z,1008.05
2018-04-26T03:47:27.759Z,1008.04
2018-04-26T03:48:27.754Z,1008.06
2018-04-26T03:49:27.736Z,1008.08
2018-04-26T03:50:27.680Z,1008.14
2018-04-26T03:51:27.651Z,1008.13
2018-04-26T03:52:27.662Z,1008.13
2018-04-26T03:53:27.590Z,1008.12
2018-04-26T03:54:27.559Z,1008.14
2018-04-26T03:55:27.539Z,1008.09
2018-04-26T03:56:27.500Z,1008.14
2018-04-26T03:57:27.472Z,1008.23
2018-04-26T03:58:27.437Z,1008.18
2018-04-26T03:59:27.401Z,1008.16
2018-04-26T04:00:27.375Z,1008.17
2018-04-26T04:01:27.345Z,1008.18
2018-04-26T04:02:27.320Z,1008.20
2018-04-26T04:03:27.289Z,1008.18
2018-04-26T04:04:27.257Z,1008.17
2018-04-26T04:05:27.228Z,1008.13
2018-04-26T04:06:27.201Z,1008.10
2018-04-26T04:07:27.170Z,1008.15
2018-04-26T04:08:27.143Z,1008.16
2018-04-26T04:09:27.121Z,1008.19
2018-04-26T04:10:27.086Z,1008.16
2018-04-26T04:11:27.049Z,1008.19
2018-04-26T04:12:27.021Z,1008.21
2018-04-26T04:13:26.990Z,1008.41
2018-04-26T04:14:26.961Z,1008.27
2018-04-26T04:15:26.929Z,1008.24
2018-04-26T04:16:26.895Z,1008.26
2018-04-26T04:17:26.868Z,1008.26
2018-04-26T04:18:26.840Z,1008.27
2018-04-26T04:19:26.809Z,1008.21
2018-04-26T04:20:26.788Z,1008.32
2018-04-26T04:21:26.757Z,1008.31
2018-04-26T04:22:26.731Z,1008.25
2018-04-26T04:23:26.918Z,1008.25
2018-04-26T04:24:26.749Z,1008.25
2018-04-26T04:25:26.791Z,1008.30
2018-04-26T04:26:26.715Z,1008.23
2018-04-26T04:27:26.674Z,1008.21
2018-04-26T04:28:26.662Z,1008.29
2018-04-26T04:29:26.686Z,1008.24
2018-04-26T04:30:26.732Z,1008.29
2018-04-26T04:31:26.467Z,1008.26
2018-04-26T04:32:26.440Z,1008.29
2018-04-26T04:33:26.393Z,1008.30
2018-04-26T04:34:26.369Z,1008.34
2018-04-26T04:35:26.342Z,1008.35
2018-04-26T04:36:26.304Z,1008.28
2018-04-26T04:37:26.281Z,1008.38
2018-04-26T04:38:26.258Z,1008.24
2018-04-26T04:39:26.239Z,1008.31
2018-04-26T04:40:26.192Z,1008.27
2018-04-26T04:41:26.153Z,1008.32
2018-04-26T04:42:26.128Z,1008.30
2018-04-26T04:43:26.098Z,1008.28
2018-04-26T04:44:26.066Z,1008.35
2018-04-26T04:45:26.057Z,1008.33
2018-04-26T04:46:26.086Z,1008.30
2018-04-26T04:47:25.979Z,1008.42
2018-04-26T04:48:25.954Z,1008.19
2018-04-26T04:49:25.920Z,1008.35
2018-04-26T04:50:25.889Z,1008.30
2018-04-26T04:51:25.864Z,1008.33
2018-04-26T04:52:25.832Z,1008.28
2018-04-26T04:53:25.802Z,1008.35
2018-04-26T04:54:25.771Z,1008.27
2018-04-26T04:55:25.762Z,1008.42
2018-04-26T04:56:25.720Z,1008.37
2018-04-26T04:57:25.683Z,1008.50
2018-04-26T04:58:25.696Z,1008.31
2018-04-26T04:59:25.622Z,1008.32
2018-04-26T05:00:25.588Z,1008.42
2018-04-26T05:01:25.574Z,1008.39
2018-04-26T05:02:25.528Z,1008.31
2018-04-26T05:03:25.511Z,1008.46
2018-04-26T05:04:25.549Z,1008.36
2018-04-26T05:05:25.447Z,1008.37
2018-04-26T05:06:25.419Z,1008.38
2018-04-26T05:07:25.439Z,1008.36
2018-04-26T05:08:25.359Z,1008.62
2018-04-26T05:09:25.327Z,1008.53
2018-04-26T05:10:25.306Z,1008.56
2018-04-26T05:11:25.260Z,1008.64
2018-04-26T05:12:25.235Z,1008.69
2018-04-26T05:13:25.217Z,1008.69
2018-04-26T05:14:25.174Z,1008.73
2018-04-26T05:15:25.143Z,1008.79
2018-04-26T05:16:25.118Z,1008.79
2018-04-26T05:17:25.087Z,1008.81
2018-04-26T05:18:25.062Z,1008.89
2018-04-26T05:19:25.065Z,1008.89
2018-04-26T05:20:25.016Z,1008.85
2018-04-26T05:21:24.974Z,1008.88
2018-04-26T05:22:24.939Z,1008.95
2018-04-26T05:23:24.907Z,1008.94
2018-04-26T05:24:24.882Z,1009.02
2018-04-26T05:25:24.865Z,1009.18
2018-04-26T05:26:24.824Z,1009.13
2018-04-26T05:27:24.798Z,1009.12
2018-04-26T05:28:24.765Z,1009.12
2018-04-26T05:29:24.784Z,1009.22
2018-04-26T05:30:24.698Z,1009.22
2018-04-26T05:31:24.674Z,1009.23
2018-04-26T05:32:24.639Z,1009.25
2018-04-26T05:33:24.619Z,1009.30
2018-04-26T05:34:24.638Z,1009.27
2018-04-26T05:35:24.547Z,1009.32
2018-04-26T05:36:24.608Z,1009.36
2018-04-26T05:37:24.493Z,1009.42
2018-04-26T05:38:24.458Z,1009.42
2018-04-26T05:39:24.430Z,1009.42
2018-04-26T05:40:24.983Z,1009.32
2018-04-26T05:41:24.429Z,1009.42
2018-04-26T05:42:24.335Z,1009.37
2018-04-26T05:43:24.304Z,1009.30
2018-04-26T05:44:24.278Z,1009.46
2018-04-26T05:45:24.246Z,1009.38
2018-04-26T05:46:24.229Z,1009.32
2018-04-26T05:47:24.254Z,1009.37
2018-04-26T05:48:24.160Z,1009.55
2018-04-26T05:49:24.134Z,1009.42
2018-04-26T05:50:24.100Z,1009.36
2018-04-26T05:51:24.163Z,1009.44
2018-04-26T05:52:24.032Z,1009.48
2018-04-26T05:53:24.028Z,1009.54
2018-04-26T05:54:23.969Z,1009.54
2018-04-26T05:55:23.955Z,1009.54
2018-04-26T05:56:23.925Z,1009.57
2018-04-26T05:57:23.875Z,1009.51
2018-04-26T05:58:23.846Z,1009.60
2018-04-26T05:59:23.872Z,1009.57
2018-04-26T06:00:23.861Z,1009.57
2018-04-26T06:01:23.811Z,1009.58
2018-04-26T06:02:23.739Z,1009.67
2018-04-26T06:03:23.724Z,1009.62
2018-04-26T06:04:23.871Z,1009.66
2018-04-26T06:05:23.730Z,1009.65
2018-04-26T06:08:14.694Z,1009.66
2018-04-26T06:09:15.308Z,1009.66
2018-04-26T06:11:11.037Z,1009.70
2018-04-26T06:12:10.722Z,1009.67
2018-04-26T06:14:17.112Z,1009.62
2018-04-26T06:15:16.628Z,1009.57
2018-04-26T06:17:22.633Z,1009.63
2018-04-26T06:18:22.536Z,1009.72
2018-04-26T06:20:18.876Z,1009.76
2018-04-26T06:21:18.708Z,1009.85
2018-04-26T06:23:22.562Z,1009.69
2018-04-26T06:24:22.663Z,1009.93
2018-04-26T06:26:26.562Z,1009.74
2018-04-26T06:27:26.570Z,1009.71
2018-04-26T06:29:34.291Z,1009.75
2018-04-26T06:30:34.211Z,1009.73
2018-04-26T06:32:34.628Z,1009.78
2018-04-26T06:33:34.445Z,1009.80
2018-04-26T06:36:02.550Z,1009.91
2018-04-26T06:37:02.320Z,1009.92
2018-04-26T06:38:02.248Z,1010.02
2018-04-26T06:39:02.184Z,1009.98
2018-04-26T06:40:02.159Z,1009.97
2018-04-26T06:41:02.127Z,1009.98
2018-04-26T06:42:02.085Z,1009.97
2018-04-26T06:43:02.052Z,1009.99
2018-04-26T06:44:02.031Z,1010.02
2018-04-26T06:45:01.998Z,1010.00
2018-04-26T06:46:01.964Z,1010.04
2018-04-26T06:47:01.934Z,1010.05
2018-04-26T06:48:01.900Z,1010.12
2018-04-26T06:49:01.897Z,1010.11
2018-04-26T06:50:01.838Z,1010.09
2018-04-26T06:51:01.807Z,1010.11
2018-04-26T06:52:01.779Z,1010.08
2018-04-26T06:53:01.747Z,1010.14
2018-04-26T06:54:01.746Z,1010.11
2018-04-26T06:55:01.689Z,1010.12
2018-04-26T06:56:01.659Z,1010.12
2018-04-26T06:57:01.634Z,1010.15
2018-04-26T06:58:01.603Z,1010.20
2018-04-26T06:59:01.572Z,1010.22
2018-04-26T07:00:01.538Z,1010.29
2018-04-26T07:01:01.528Z,1010.32
2018-04-26T07:02:01.478Z,1010.23
2018-04-26T07:03:01.450Z,1010.28
2018-04-26T07:04:01.418Z,1010.23
2018-04-26T07:05:01.386Z,1010.18
2018-04-26T07:06:01.365Z,1010.20
2018-04-26T07:07:01.337Z,1010.16
2018-04-26T07:08:01.298Z,1010.21
2018-04-26T07:09:01.263Z,1010.24
2018-04-26T07:10:01.230Z,1010.19
2018-04-26T07:11:01.203Z,1010.27
2018-04-26T07:12:01.203Z,1010.28
2018-04-26T07:13:01.148Z,1010.29
2018-04-26T07:14:01.117Z,1010.27
2018-04-26T07:15:01.092Z,1010.21
2018-04-26T07:16:01.062Z,1010.31
2018-04-26T07:17:01.032Z,1010.34
2018-04-26T07:18:00.995Z,1010.32
2018-04-26T07:19:00.971Z,1010.30
2018-04-26T07:20:00.934Z,1010.31
2018-04-26T07:21:00.905Z,1010.34
2018-04-26T07:22:00.898Z,1010.33
2018-04-26T07:23:00.846Z,1010.34
2018-04-26T07:24:00.810Z,1010.28
2018-04-26T07:25:00.780Z,1010.34
2018-04-26T07:26:00.760Z,1010.38
2018-04-26T07:27:00.726Z,1010.36
2018-04-26T07:28:00.699Z,1010.29
2018-04-26T07:29:00.668Z,1010.45
2018-04-26T07:30:00.636Z,1010.33
2018-04-26T07:31:00.616Z,1010.31
2018-04-26T07:32:00.584Z,1010.29
2018-04-26T07:33:00.593Z,1010.33
2018-04-26T07:34:00.525Z,1010.36
2018-04-26T07:35:00.489Z,1010.34
2018-04-26T07:36:00.462Z,1010.32
2018-04-26T07:37:00.429Z,1010.35
2018-04-26T07:38:00.418Z,1010.26
2018-04-26T07:39:00.363Z,1010.33
2018-04-26T07:40:00.345Z,1010.28
2018-04-26T07:41:00.310Z,1010.33
2018-04-26T07:42:00.279Z,1010.28
2018-04-26T07:43:00.253Z,1010.33
2018-04-26T07:44:00.226Z,1010.29
2018-04-26T07:45:00.196Z,1010.26
2018-04-26T07:46:00.160Z,1010.29
2018-04-26T07:47:00.128Z,1010.23
2018-04-26T07:48:00.109Z,1010.26
2018-04-26T07:49:00.073Z,1010.40
2018-04-26T07:50:00.047Z,1010.37
2018-04-26T07:51:00.014Z,1010.39
2018-04-26T07:51:59.987Z,1010.39
2018-04-26T07:52:59.961Z,1010.31
2018-04-26T07:53:59.940Z,1010.35
2018-04-26T07:54:59.904Z,1010.37
2018-04-26T07:55:59.871Z,1010.35
2018-04-26T07:56:59.839Z,1010.33
2018-04-26T07:57:59.822Z,1010.38
2018-04-26T07:58:59.788Z,1010.37
2018-04-26T07:59:59.747Z,1010.37
2018-04-26T08:00:59.729Z,1010.44
2018-04-26T08:01:59.688Z,1010.41
2018-04-26T08:02:59.662Z,1010.42
2018-04-26T08:03:59.632Z,1010.44
2018-04-26T08:04:59.609Z,1010.42
2018-04-26T08:05:59.580Z,1010.43
2018-04-26T08:06:59.548Z,1010.40
2018-04-26T08:07:59.523Z,1010.40
2018-04-26T08:08:59.511Z,1010.39
2018-04-26T08:09:59.467Z,1010.42
2018-04-26T08:10:59.436Z,1010.43
2018-04-26T08:11:59.406Z,1010.41
2018-04-26T08:12:59.386Z,1010.42
2018-04-26T08:13:59.347Z,1010.42
2018-04-26T08:14:59.321Z,1010.41
2018-04-26T08:15:59.294Z,1010.40
2018-04-26T08:16:59.264Z,1010.66
2018-04-26T08:17:59.230Z,1010.42
2018-04-26T08:18:59.203Z,1010.54
2018-04-26T08:19:59.176Z,1010.52
2018-04-26T08:20:59.148Z,1010.54
2018-04-26T08:21:59.114Z,1010.51
2018-04-26T08:22:59.087Z,1010.44
2018-04-26T08:23:59.060Z,1010.49
2018-04-26T08:24:59.099Z,1010.50
2018-04-26T08:25:59.004Z,1010.50
2018-04-26T08:26:58.978Z,1010.53
2018-04-26T08:27:58.946Z,1010.43
2018-04-26T08:28:58.921Z,1010.47
2018-04-26T08:29:58.888Z,1010.54
2018-04-26T08:30:58.859Z,1010.50
2018-04-26T08:31:58.826Z,1010.67
2018-04-26T08:32:58.799Z,1010.55
2018-04-26T08:33:58.777Z,1010.53
2018-04-26T08:34:58.746Z,1010.61
2018-04-26T08:35:58.709Z,1010.67
2018-04-26T08:36:58.695Z,1010.59
2018-04-26T08:37:58.652Z,1010.59
2018-04-26T08:38:58.638Z,1010.63
2018-04-26T08:39:58.603Z,1010.68
2018-04-26T08:40:58.576Z,1010.76
2018-04-26T08:41:58.543Z,1010.69
2018-04-26T08:42:58.523Z,1010.63
2018-04-26T08:43:58.489Z,1010.67
2018-04-26T08:44:58.463Z,1010.72
2018-04-26T08:45:58.439Z,1010.80
2018-04-26T08:46:58.399Z,1010.79
2018-04-26T08:47:58.383Z,1010.63
2018-04-26T08:48:58.345Z,1010.74
2018-04-26T08:49:58.309Z,1010.82
2018-04-26T08:50:58.296Z,1010.77
2018-04-26T08:51:58.289Z,1010.93
2018-04-26T08:52:58.239Z,1010.79
2018-04-26T08:53:58.206Z,1010.86
2018-04-26T08:54:58.170Z,1010.92
2018-04-26T08:55:58.160Z,1010.84
2018-04-26T08:56:58.120Z,1010.71
2018-04-26T08:57:58.092Z,1010.89
2018-04-26T08:58:58.060Z,1010.89
2018-04-26T08:59:58.032Z,1010.84
2018-04-26T09:00:58.020Z,1010.82
2018-04-26T09:01:57.979Z,1010.88
2018-04-26T09:02:57.949Z,1010.81
2018-04-26T09:03:57.917Z,1010.77
2018-04-26T09:04:57.889Z,1010.81
2018-04-26T09:05:57.862Z,1010.82
2018-04-26T09:06:57.830Z,1010.93
2018-04-26T09:07:57.806Z,1010.83
2018-04-26T09:08:57.775Z,1010.82
2018-04-26T09:09:57.749Z,1010.82
2018-04-26T09:10:57.722Z,1010.87
2018-04-26T09:11:57.700Z,1010.84
2018-04-26T09:12:57.669Z,1010.82
2018-04-26T09:13:57.638Z,1010.76
2018-04-26T09:14:57.612Z,1010.79
2018-04-26T09:15:57.668Z,1010.87
2018-04-26T09:16:57.560Z,1010.97
2018-04-26T09:17:58.373Z,1011.00
2018-04-26T09:18:57.512Z,1010.98
2018-04-26T09:19:57.466Z,1010.91
2018-04-26T09:20:57.445Z,1010.91
2018-04-26T09:21:57.428Z,1010.89
2018-04-26T09:22:57.391Z,1010.70
2018-04-26T09:23:57.358Z,1010.84
2018-04-26T09:24:57.335Z,1010.93
2018-04-26T09:25:57.302Z,1010.88
2018-04-26T09:26:57.278Z,1010.99
2018-04-26T09:27:57.250Z,1010.95
2018-04-26T09:28:57.228Z,1011.05
2018-04-26T09:29:57.268Z,1011.00
2018-04-26T09:30:57.172Z,1010.99
2018-04-26T09:31:57.142Z,1011.11
2018-04-26T09:32:57.121Z,1010.95
2018-04-26T09:33:57.080Z,1010.99
2018-04-26T09:34:57.111Z,1011.09
2018-04-26T09:35:57.135Z,1011.15
2018-04-26T09:36:57.058Z,1011.03
2018-04-26T09:37:57.315Z,1011.09
2018-04-26T09:38:56.942Z,1011.08
2018-04-26T09:39:56.919Z,1011.03
2018-04-26T09:40:56.881Z,1011.00
2018-04-26T09:41:56.863Z,1011.00
2018-04-26T09:42:56.831Z,1011.09
2018-04-26T09:43:56.807Z,1011.13
2018-04-26T09:44:56.784Z,1011.19
2018-04-26T09:45:56.754Z,1011.09
2018-04-26T09:46:56.720Z,1011.18
2018-04-26T09:47:56.687Z,1011.21
2018-04-26T09:48:56.665Z,1011.29
2018-04-26T09:49:56.633Z,1011.29
2018-04-26T09:50:56.615Z,1011.24
2018-04-26T09:51:56.584Z,1011.27
2018-04-26T09:52:56.577Z,1011.11
2018-04-26T09:53:56.523Z,1011.15
2018-04-26T09:54:56.502Z,1011.18
2018-04-26T09:55:56.469Z,1011.16
2018-04-26T09:56:56.447Z,1011.23
2018-04-26T09:57:56.427Z,1011.20
2018-04-26T09:58:56.395Z,1011.30
2018-04-26T09:59:56.366Z,1011.15
2018-04-26T10:00:56.848Z,1011.28
2018-04-26T10:01:56.345Z,1011.17
2018-04-26T10:02:56.318Z,1011.14
2018-04-26T10:03:56.247Z,1011.21
2018-04-26T10:04:56.223Z,1011.17
2018-04-26T10:05:56.191Z,1011.11
2018-04-26T10:06:56.172Z,1011.08
2018-04-26T10:07:56.145Z,1011.07
2018-04-26T10:08:56.120Z,1011.22
2018-04-26T10:09:56.103Z,1011.10
2018-04-26T10:10:56.058Z,1011.10
2018-04-26T10:11:56.035Z,1011.07
2018-04-26T10:12:56.006Z,1011.08
2018-04-26T10:13:55.982Z,1011.10
2018-04-26T10:14:55.956Z,1011.24
2018-04-26T10:15:55.923Z,1011.11
2018-04-26T10:16:55.907Z,1011.08
2018-04-26T10:17:55.878Z,1011.08
2018-04-26T10:18:55.846Z,1011.09
2018-04-26T10:19:55.818Z,1011.08
2018-04-26T10:20:55.801Z,1011.32
2018-04-26T10:21:55.766Z,1011.09
2018-04-26T10:22:55.737Z,1011.09
2018-04-26T10:23:55.713Z,1011.06
2018-04-26T10:24:55.691Z,1011.18
2018-04-26T10:25:55.660Z,1011.13
2018-04-26T10:26:55.633Z,1011.18
2018-04-26T10:27:55.607Z,1011.24
2018-04-26T10:28:55.580Z,1011.18
2018-04-26T10:29:55.582Z,1011.32
2018-04-26T10:30:55.527Z,1011.14
2018-04-26T10:31:55.492Z,1011.27
2018-04-26T10:32:55.462Z,1011.33
2018-04-26T10:33:55.442Z,1011.27
2018-04-26T10:34:55.409Z,1011.39
2018-04-26T10:35:55.385Z,1011.26
2018-04-26T10:36:55.356Z,1011.26
2018-04-26T10:37:55.329Z,1011.29
2018-04-26T10:38:55.312Z,1011.31
2018-04-26T10:39:55.324Z,1011.20
2018-04-26T10:40:55.259Z,1011.13
2018-04-26T10:41:55.231Z,1011.13
2018-04-26T10:42:55.197Z,1011.17
2018-04-26T10:43:55.170Z,1011.17
2018-04-26T10:44:55.153Z,1011.27
2018-04-26T10:45:55.121Z,1011.17
2018-04-26T10:46:55.093Z,1011.20
2018-04-26T10:47:55.069Z,1011.28
2018-04-26T10:48:55.039Z,1011.24
2018-04-26T10:49:55.004Z,1011.28
2018-04-26T10:50:54.981Z,1011.27
2018-04-26T10:51:54.969Z,1011.31
2018-04-26T10:52:55.010Z,1011.29
2018-04-26T10:53:54.909Z,1011.35
2018-04-26T10:54:54.911Z,1011.25
2018-04-26T10:55:54.847Z,1011.55
2018-04-26T10:56:54.827Z,1011.34
2018-04-26T10:57:54.794Z,1011.32
2018-04-26T10:58:54.768Z,1011.28
2018-04-26T10:59:54.741Z,1011.32
2018-04-26T11:00:54.719Z,1011.25
2018-04-26T11:01:54.688Z,1011.25
2018-04-26T11:02:54.663Z,1011.16
2018-04-26T11:03:54.647Z,1011.30
2018-04-26T11:04:54.614Z,1011.38
2018-04-26T11:05:54.587Z,1011.28
2018-04-26T11:06:54.568Z,1011.20
2018-04-26T11:07:54.533Z,1011.24
2018-04-26T11:08:54.509Z,1011.18
2018-04-26T11:09:54.483Z,1011.31
2018-04-26T11:10:54.454Z,1011.27
2018-04-26T11:11:54.802Z,1011.24
2018-04-26T11:12:54.396Z,1011.25
2018-04-26T11:13:54.369Z,1011.20
2018-04-26T11:14:54.345Z,1011.27
2018-04-26T11:15:54.322Z,1011.28
2018-04-26T11:16:54.288Z,1011.25
2018-04-26T11:17:54.269Z,1011.26
2018-04-26T11:18:54.240Z,1011.25
2018-04-26T11:19:54.227Z,1011.43
2018-04-26T11:20:54.196Z,1011.42
2018-04-26T11:21:54.164Z,1011.27
2018-04-26T11:22:54.144Z,1011.32
2018-04-26T11:23:54.109Z,1011.41
2018-04-26T11:24:54.084Z,1011.35
2018-04-26T11:25:54.058Z,1011.32
2018-04-26T11:26:54.039Z,1011.32
2018-04-26T11:27:54.006Z,1011.18
2018-04-26T11:28:53.977Z,1011.24
2018-04-26T11:29:53.949Z,1011.33
2018-04-26T11:30:53.959Z,1011.25
2018-04-26T11:31:53.916Z,1011.16
2018-04-26T11:32:53.886Z,1011.17
2018-04-26T11:33:53.847Z,1011.23
2018-04-26T11:34:53.831Z,1011.13
2018-04-26T11:35:53.805Z,1011.16
2018-04-26T11:36:53.780Z,1011.27
2018-04-26T11:37:54.362Z,1011.32
2018-04-26T11:38:53.740Z,1011.12
2018-04-26T11:39:53.706Z,1011.25
2018-04-26T11:40:53.676Z,1011.15
2018-04-26T11:41:53.655Z,1011.24
2018-04-26T11:42:53.630Z,1011.09
2018-04-26T11:43:53.596Z,1011.14
2018-04-26T11:44:53.576Z,1011.13
2018-04-26T11:45:53.549Z,1011.22
2018-04-26T11:46:53.525Z,1011.08
2018-04-26T11:47:53.499Z,1011.06
2018-04-26T11:48:53.474Z,1011.11
2018-04-26T11:49:53.499Z,1011.11
2018-04-26T11:50:53.422Z,1011.12
2018-04-26T11:51:53.413Z,1011.06
2018-04-26T11:52:53.408Z,1011.12
2018-04-26T11:53:53.361Z,1011.41
2018-04-26T11:54:53.337Z,1011.42
2018-04-26T11:55:53.304Z,1011.34
2018-04-26T11:56:53.284Z,1011.24
2018-04-26T11:57:53.264Z,1011.41
2018-04-26T11:58:53.242Z,1011.29
2018-04-26T11:59:53.227Z,1011.40
2018-04-26T12:00:53.199Z,1011.29
2018-04-26T12:01:53.175Z,1011.28
2018-04-26T12:02:53.270Z,1011.26
2018-04-26T12:03:53.124Z,1011.30
2018-04-26T12:04:53.109Z,1011.29
2018-04-26T12:05:53.077Z,1011.30
2018-04-26T12:06:53.052Z,1011.12
2018-04-26T12:07:53.022Z,1011.44
2018-04-26T12:08:53.000Z,1011.27
2018-04-26T12:09:52.973Z,1011.34
2018-04-26T12:10:52.946Z,1011.29
2018-04-26T12:11:52.935Z,1011.25
2018-04-26T12:12:52.906Z,1011.27
2018-04-26T12:13:52.869Z,1011.46
2018-04-26T12:14:52.845Z,1011.27
2018-04-26T12:15:52.822Z,1011.34
2018-04-26T12:16:53.381Z,1011.22
2018-04-26T12:17:52.772Z,1011.21
2018-04-26T12:18:52.751Z,1011.24
2018-04-26T12:19:52.725Z,1011.16
2018-04-26T12:20:52.699Z,1011.29
2018-04-26T12:21:52.673Z,1011.37
2018-04-26T12:22:52.645Z,1011.36
2018-04-26T12:23:52.615Z,1011.36
2018-04-26T12:24:52.604Z,1011.33
2018-04-26T12:25:52.564Z,1011.22
2018-04-26T12:26:52.538Z,1011.28
2018-04-26T12:27:52.510Z,1011.25
2018-04-26T12:28:52.493Z,1011.17
2018-04-26T12:29:52.461Z,1011.19
2018-04-26T12:30:52.430Z,1011.27
2018-04-26T12:31:52.413Z,1011.23
2018-04-26T12:32:52.392Z,1011.32
2018-04-26T12:33:52.360Z,1011.13
2018-04-26T12:34:52.334Z,1011.12
2018-04-26T12:35:52.310Z,1011.16
2018-04-26T12:36:52.297Z,1011.10